KDABKXMR

Guest
Details From KDAB - Daytona Beach Intl
To KXMR - Cape Canaveral Afs Skid Strip
Flight Number -
Tags Generated
Created
Modified
Stats Distance 49 nm / 91 km
Max Altitude 0 ft / 0 m
Waypoints 2
Social Downloads 1
Likes 0
Share VATSIM

Download

Looking for another format? Having issues loading an existing format? Contact us
Advertisement - Login to hide

Notes

Generated

Route

KDAB KXMR

ID Type Via Altitude Latitude Longitude Leg Dist Tot Dist Heading (true) Name
O KDAB APT - 0 ft / 0 m 29.17603˚ -81.05684˚ - 0 nm - Daytona Beach Intl
O KXMR APT - 0 ft / 0 m 28.47601˚ -80.57891˚ 48 nm 48 nm 149° / 149° -

Altitude Profile

Advertisement - Login to hide

KDAB

Details ICAO KDAB (DAB)
Name Daytona Beach Intl
Region United States
Timezone America/New_York (UTC-4.0)
Stats Elevation 34 ft / 10 m (AMSL)
Location 29.179918° -81.055946°
Runways 3
Magnetic Variation 6.711° W

METAR

KDAB 230253Z 13003KT 10SM SCT065 SCT120 BKN250 23/23 A3011 RMK AO2 SLP194 T02330228 51008

Decode

TAF

TAF KDAB 222340Z 2300/2324 VRB04KT P6SM VCSH FEW025 SCT070 OVC140 FM230200 17002KT P6SM FEW030 BKN120 OVC250 FM231500 14006KT P6SM VCSH SCT025 BKN050

Decode

Departure Runways

ID Width Length Bearing (true) Bearing (mag) Surface Threshold Offset Overrun Length
07L 151 ft / 46 m 10,492 ft / 3,198 m 65.10° 71.81° Asphalt 689 ft / 210 m 0 ft / 0 m
07R 98 ft / 30 m 3,193 ft / 973 m 65.04° 71.75° Asphalt 0 ft / 0 m 0 ft / 0 m
16 151 ft / 46 m 6,018 ft / 1,834 m 157.27° 163.98° Asphalt 0 ft / 0 m 200 ft / 61 m
25L 98 ft / 30 m 3,193 ft / 973 m 245.04° 251.75° Asphalt 0 ft / 0 m 0 ft / 0 m
25R 151 ft / 46 m 10,492 ft / 3,198 m 245.12° 251.83° Asphalt 0 ft / 0 m 0 ft / 0 m
34 151 ft / 46 m 6,018 ft / 1,834 m 337.27° 343.98° Asphalt 0 ft / 0 m 200 ft / 61 m

KXMR

Details ICAO KXMR
Name CAPE CANAVERAL AFS SKID STRIP
Region United States
Timezone America/New_York (UTC-4.0)
Stats Elevation 10 ft / 3 m (AMSL)
Location 28.467586° -80.566615°
Runways 1
Magnetic Variation 6.911° W

METAR

KXMR 230256Z AUTO 11004KT 10SM SCT150 23/21 A3009 RMK AO2 SLP192 T02280205 53006 FZRANO $

Decode

TAF

Not found

Destination Runways

ID Width Length Bearing (true) Bearing (mag) Surface Threshold Offset Overrun Length
13 200 ft / 61 m 10,002 ft / 3,049 m 127.93° 134.84° Asphalt 0 ft / 0 m 0 ft / 0 m
31 200 ft / 61 m 10,002 ft / 3,049 m 307.94° 314.85° Asphalt 0 ft / 0 m 0 ft / 0 m